aviador You're here:

TBPB Decoded Metar

BRIDGETOWN in BARBADOS
Report Time2017-10-17 11:00:00
UTC Time2017-10-17 11:27:46
Flight Rules vfr VFR
Wind110° at 17 kt
W.Decomp.*RWY 09: 13.9 kt HW 9.8 kt RCW
W.Rank110° ranks 5
Current wind is above 110° avg. (13.6)
Visibility9999 m
Phenomena:Vicinity showers
Clouds:Few CB 014 Hf
Scattered 016 Hf
Broken 036 Hf
Expected CloudBase > 1,200 ft AGL from Temp-Dew spread
Ceiling3,600 ft
Temp28°C (ISA +13)
Dew Point25°C (84% RH)
Heat Index32.7°C
QNH1014 hPa
Density Alt2,087 ft
Elevation171 ft
Report Wrong Elevation
Raw Report
METAR TBPB 171100Z 11017KT 9999 VCSH FEW014CB SCT016 BKN036 28/25 Q1014
NOSIG=

Extra information for TBPB:More info

Metar Taf Metar & Taf Last 4 Metars F.Rules Stats Wind Profile Meteogram Temp Stats Airport Information Weather charts Add Link Nearby VenuesMetar ALERT Operation Metar Decoded Social comments